createdAt,value
2019-02-28T00:02:31.359Z,100641.75
2019-02-28T00:05:05.805Z,100638.88
2019-02-28T00:07:36.278Z,100631.64
2019-02-28T00:10:09.555Z,100626.27
2019-02-28T00:12:41.191Z,100615.22
2019-02-28T00:15:13.875Z,100616.34
2019-02-28T00:17:45.463Z,100617.27
2019-02-28T00:20:17.012Z,100609.73
2019-02-28T00:22:49.424Z,100607.50
2019-02-28T00:25:21.085Z,100600.27
2019-02-28T00:27:53.451Z,100598.47
2019-02-28T00:30:26.213Z,100598.44
2019-02-28T00:32:59.322Z,100599.81
2019-02-28T00:35:31.063Z,100591.76
2019-02-28T00:38:02.656Z,100593.55
2019-02-28T00:40:34.285Z,100594.44
2019-02-28T00:43:05.888Z,100594.96
2019-02-28T00:45:38.328Z,100587.36
2019-02-28T00:48:10.515Z,100582.13
2019-02-28T00:50:42.223Z,100572.55
2019-02-28T00:53:14.608Z,100569.86
2019-02-28T00:55:47.030Z,100555.17
2019-02-28T00:58:18.737Z,100555.39
2019-02-28T01:00:50.342Z,100550.43
2019-02-28T01:03:26.499Z,100544.42
2019-02-28T01:05:55.983Z,100528.02
2019-02-28T01:08:27.646Z,100529.88
2019-02-28T01:10:59.312Z,100519.00
2019-02-28T01:13:30.831Z,100520.75
2019-02-28T01:16:02.453Z,100507.73
2019-02-28T01:18:34.768Z,100500.39
2019-02-28T01:21:07.098Z,100500.34
2019-02-28T01:23:38.727Z,100494.53
2019-02-28T01:26:11.757Z,100486.52
2019-02-28T01:28:43.638Z,100495.50
2019-02-28T01:31:15.296Z,100485.07
2019-02-28T01:33:47.078Z,100478.47
2019-02-28T01:36:18.697Z,100476.45
2019-02-28T01:38:50.294Z,100470.02
2019-02-28T01:41:21.902Z,100467.22
2019-02-28T01:43:53.496Z,100456.48
2019-02-28T01:46:25.178Z,100445.64
2019-02-28T01:48:57.008Z,100438.56
2019-02-28T01:51:28.688Z,100439.45
2019-02-28T01:54:00.191Z,100430.58
2019-02-28T01:56:34.299Z,100423.87
2019-02-28T01:59:05.091Z,100412.66
2019-02-28T02:01:36.737Z,100398.05
2019-02-28T02:04:08.783Z,100399.09
2019-02-28T02:06:40.394Z,100396.20
2019-02-28T02:09:11.940Z,100380.51
2019-02-28T02:11:43.738Z,100377.38
2019-02-28T02:14:15.425Z,100363.72
2019-02-28T02:16:47.055Z,100364.27
2019-02-28T02:19:18.844Z,100353.14
2019-02-28T02:21:51.102Z,100355.04
2019-02-28T02:24:24.405Z,100355.00
2019-02-28T02:26:56.317Z,100345.20
2019-02-28T02:29:27.896Z,100348.00
2019-02-28T02:32:01.141Z,100333.29
2019-02-28T02:34:32.698Z,100334.18
2019-02-28T02:37:04.786Z,100338.69
2019-02-28T02:39:36.546Z,100343.76
2019-02-28T02:42:11.425Z,100333.14
2019-02-28T02:44:41.832Z,100341.19
2019-02-28T02:47:13.412Z,100335.83
2019-02-28T02:49:45.521Z,100323.91
2019-02-28T02:52:17.330Z,100319.89
2019-02-28T02:54:52.234Z,100308.68
2019-02-28T02:57:22.214Z,100305.25
2019-02-28T02:59:53.882Z,100291.77
2019-02-28T03:02:28.838Z,100289.91
2019-02-28T03:05:01.820Z,100294.37
2019-02-28T03:07:33.388Z,100289.02
2019-02-28T03:10:08.753Z,100285.40
2019-02-28T03:12:40.375Z,100283.12
2019-02-28T03:15:15.347Z,100284.55
2019-02-28T03:17:48.630Z,100275.69
2019-02-28T03:20:20.215Z,100276.21
2019-02-28T03:22:51.987Z,100264.11
2019-02-28T03:25:27.642Z,100261.34
2019-02-28T03:27:57.008Z,100257.15
2019-02-28T03:30:32.748Z,100254.99
2019-02-28T03:33:02.123Z,100254.92
2019-02-28T03:35:41.732Z,100243.94
2019-02-28T03:38:11.458Z,100241.16
2019-02-28T03:40:41.261Z,100233.75
2019-02-28T03:43:13.035Z,100227.58
2019-02-28T03:45:44.569Z,100223.03
2019-02-28T03:48:16.206Z,100221.33
2019-02-28T03:50:47.807Z,100208.00
2019-02-28T03:53:20.942Z,100204.43
2019-02-28T03:55:52.751Z,100200.66
2019-02-28T03:58:24.385Z,100192.63
2019-02-28T04:00:55.974Z,100193.03
2019-02-28T04:03:33.433Z,100189.13
2019-02-28T04:06:03.665Z,100186.86
2019-02-28T04:08:34.091Z,100179.16
2019-02-28T04:11:05.797Z,100174.99
2019-02-28T04:13:37.382Z,100167.80
2019-02-28T04:16:10.024Z,100160.02
2019-02-28T04:18:46.167Z,100160.66
2019-02-28T04:21:15.095Z,100151.92
2019-02-28T04:23:46.691Z,100147.53
2019-02-28T04:26:19.395Z,100144.08
2019-02-28T04:28:54.733Z,100138.84
2019-02-28T04:31:24.220Z,100134.63
2019-02-28T04:33:55.933Z,100127.67
2019-02-28T04:36:27.502Z,100111.43
2019-02-28T04:38:59.194Z,100105.26
2019-02-28T04:41:32.908Z,100095.11
2019-02-28T04:44:04.242Z,100096.02
2019-02-28T04:46:35.814Z,100090.43
2019-02-28T04:49:07.485Z,100085.48
2019-02-28T04:51:40.151Z,100068.19
2019-02-28T04:54:12.333Z,100069.64
2019-02-28T04:56:45.566Z,100066.60
2019-02-28T04:59:17.337Z,100063.81
2019-02-28T05:01:49.025Z,100052.03
2019-02-28T05:04:20.699Z,100056.69
2019-02-28T05:06:55.254Z,100057.24
2019-02-28T05:09:26.453Z,100053.58
2019-02-28T05:11:58.081Z,100055.61
2019-02-28T05:14:29.627Z,100048.31
2019-02-28T05:17:01.221Z,100041.23
2019-02-28T05:19:35.847Z,100043.82
2019-02-28T05:22:06.324Z,100047.81
2019-02-28T05:24:39.394Z,100037.03
2019-02-28T05:27:12.103Z,100036.17
2019-02-28T05:29:44.712Z,100033.77
2019-02-28T05:32:16.629Z,100027.93
2019-02-28T05:34:51.188Z,100028.16
2019-02-28T05:37:21.963Z,100020.83
2019-02-28T05:39:53.466Z,100024.53
2019-02-28T05:42:26.619Z,100028.75
2019-02-28T05:44:58.290Z,100016.37
2019-02-28T05:47:32.399Z,100015.16
2019-02-28T05:50:03.011Z,100008.14
2019-02-28T05:52:34.638Z,100008.38
2019-02-28T05:55:09.355Z,100006.44
2019-02-28T05:57:43.407Z,100006.97
2019-02-28T06:00:17.750Z,100008.62
2019-02-28T06:02:49.407Z,100006.95
2019-02-28T06:05:20.923Z,100009.39
2019-02-28T06:07:52.739Z,100000.19
2019-02-28T06:10:24.910Z,100000.06
2019-02-28T06:12:56.551Z,99998.72
2019-02-28T06:15:28.980Z,99996.52
2019-02-28T06:18:00.803Z,99986.78
2019-02-28T06:20:32.485Z,100000.90
2019-02-28T06:23:06.336Z,100012.55
2019-02-28T06:25:37.714Z,100011.16
2019-02-28T06:28:09.296Z,100024.85
2019-02-28T06:30:42.624Z,100024.28
2019-02-28T06:33:14.278Z,100013.95
2019-02-28T06:35:45.897Z,100021.16
2019-02-28T06:38:19.240Z,100024.63
2019-02-28T06:40:51.689Z,100013.09
2019-02-28T06:43:23.381Z,100012.16
2019-02-28T06:45:55.767Z,100000.28
2019-02-28T06:48:28.189Z,99987.77
2019-02-28T06:50:59.808Z,99983.09
2019-02-28T06:53:33.966Z,99989.56
2019-02-28T06:56:06.305Z,99987.21
2019-02-28T06:58:37.908Z,99983.80
2019-02-28T07:01:09.485Z,99975.08
2019-02-28T07:03:42.571Z,99980.05
2019-02-28T07:06:14.690Z,99986.28
2019-02-28T07:08:46.387Z,99969.58
2019-02-28T07:11:19.905Z,99965.55
2019-02-28T07:13:51.420Z,99978.49
2019-02-28T07:16:23.006Z,99974.67
2019-02-28T07:18:54.579Z,99976.30
2019-02-28T07:21:26.178Z,99978.44
2019-02-28T07:23:57.758Z,99971.17
2019-02-28T07:26:29.258Z,99976.75
2019-02-28T07:29:00.917Z,99982.61
2019-02-28T07:31:32.684Z,99979.78
2019-02-28T07:34:04.258Z,99992.81
2019-02-28T07:36:35.826Z,99998.12
2019-02-28T07:39:07.393Z,99977.27
2019-02-28T07:41:41.389Z,99989.31
2019-02-28T07:44:12.668Z,99979.63
2019-02-28T07:46:44.329Z,99976.30
2019-02-28T07:49:15.893Z,99991.48
2019-02-28T07:51:47.485Z,99986.17
2019-02-28T07:54:20.480Z,99988.23
2019-02-28T07:56:52.744Z,99984.34
2019-02-28T07:59:24.555Z,99986.03
2019-02-28T08:01:56.175Z,99977.20
2019-02-28T08:04:27.905Z,99973.17
2019-02-28T08:06:59.539Z,99962.91
2019-02-28T08:09:31.068Z,99972.41
2019-02-28T08:12:03.103Z,99970.61
2019-02-28T08:14:34.775Z,99979.73
2019-02-28T08:17:09.032Z,99983.22
2019-02-28T08:19:40.256Z,99976.16
2019-02-28T08:22:11.869Z,99981.55
2019-02-28T08:24:43.534Z,99976.16
2019-02-28T08:27:15.582Z,99978.88
2019-02-28T08:29:47.405Z,99985.52
2019-02-28T08:32:18.992Z,99982.83
2019-02-28T08:34:50.696Z,99983.05
2019-02-28T08:37:22.496Z,99970.31
2019-02-28T08:39:54.188Z,99975.27
2019-02-28T08:42:25.800Z,99961.11
2019-02-28T08:44:58.938Z,99959.53
2019-02-28T08:47:30.821Z,99976.55
2019-02-28T08:50:02.794Z,99959.44
2019-02-28T08:52:37.642Z,99945.67
2019-02-28T08:55:14.793Z,99964.83
2019-02-28T08:57:54.499Z,99964.43
2019-02-28T09:00:21.915Z,99982.04
2019-02-28T09:02:53.844Z,99976.94
2019-02-28T09:05:28.937Z,99971.33
2019-02-28T09:07:58.803Z,99977.77
2019-02-28T09:10:31.393Z,99981.48
2019-02-28T09:13:07.696Z,99975.20
2019-02-28T09:15:36.309Z,99971.42
2019-02-28T09:18:07.975Z,99960.09
2019-02-28T09:20:41.349Z,99974.34
2019-02-28T09:23:13.052Z,99973.86
2019-02-28T09:25:44.659Z,99966.60
2019-02-28T09:28:16.193Z,99978.23
2019-02-28T09:30:55.440Z,99958.36
2019-02-28T09:33:27.016Z,99965.02
2019-02-28T09:35:58.651Z,99966.42
2019-02-28T09:38:30.332Z,99956.15
2019-02-28T09:41:04.615Z,99957.96
2019-02-28T09:43:35.258Z,99958.11
2019-02-28T09:46:09.040Z,99965.17
2019-02-28T09:48:40.920Z,99988.08
2019-02-28T09:51:12.575Z,99988.38
2019-02-28T09:53:44.158Z,99998.92
2019-02-28T09:56:15.827Z,99994.66
2019-02-28T09:58:49.491Z,99995.05
2019-02-28T10:01:24.416Z,99993.05
2019-02-28T10:03:56.216Z,99997.08
2019-02-28T10:06:27.937Z,99992.26
2019-02-28T10:08:59.542Z,99991.50
2019-02-28T10:11:31.890Z,100006.37
2019-02-28T10:14:04.128Z,100002.35
2019-02-28T10:16:35.998Z,99999.58
2019-02-28T10:19:10.283Z,100002.17
2019-02-28T10:21:41.138Z,100001.06
2019-02-28T10:24:12.688Z,99995.75
2019-02-28T10:26:44.209Z,99996.45
2019-02-28T10:29:15.949Z,100011.28
2019-02-28T10:31:49.081Z,100002.73
2019-02-28T10:34:23.543Z,100009.53
2019-02-28T10:36:53.931Z,100004.70
2019-02-28T10:39:25.489Z,100011.91
2019-02-28T10:41:57.092Z,100014.48
2019-02-28T10:44:30.726Z,100014.29
2019-02-28T10:47:02.516Z,100012.01
2019-02-28T10:49:34.122Z,100015.03
2019-02-28T10:52:05.773Z,100020.18
2019-02-28T10:54:37.919Z,100024.69
2019-02-28T10:57:09.545Z,100014.92
2019-02-28T10:59:41.430Z,100012.66
2019-02-28T11:02:13.959Z,100015.12
2019-02-28T11:04:46.594Z,100017.14
2019-02-28T11:07:18.223Z,100017.03
2019-02-28T11:09:49.925Z,100022.11
2019-02-28T11:12:23.719Z,100025.80
2019-02-28T11:14:54.895Z,100034.14
2019-02-28T11:17:30.488Z,100037.05
2019-02-28T11:20:01.300Z,100030.83
2019-02-28T11:22:36.552Z,100034.31
2019-02-28T11:25:12.017Z,100033.72
2019-02-28T11:27:43.632Z,100035.91
2019-02-28T11:30:22.571Z,100053.98
2019-02-28T11:32:54.098Z,100042.16
2019-02-28T11:35:25.845Z,100042.16
2019-02-28T11:37:57.516Z,100039.52
2019-02-28T11:40:29.989Z,100047.83
2019-02-28T11:43:03.846Z,100051.94
2019-02-28T11:45:41.512Z,100044.87
2019-02-28T11:48:20.203Z,100045.77
2019-02-28T11:50:50.738Z,100039.65
2019-02-28T11:53:22.397Z,100034.94
2019-02-28T11:55:54.423Z,100039.56
2019-02-28T11:58:26.122Z,100026.00
2019-02-28T12:00:57.833Z,100025.36
2019-02-28T12:03:31.806Z,100024.14
2019-02-28T12:06:02.766Z,100017.91
2019-02-28T12:08:34.402Z,100012.95
2019-02-28T12:11:05.954Z,100014.11
2019-02-28T12:13:37.625Z,100004.34
2019-02-28T12:16:09.404Z,100007.05
2019-02-28T12:18:41.086Z,100008.89
2019-02-28T12:21:13.020Z,100013.54
2019-02-28T12:23:44.703Z,100011.23
2019-02-28T12:26:17.717Z,100015.41
2019-02-28T12:28:49.494Z,100028.38
2019-02-28T12:31:21.031Z,100021.24
2019-02-28T12:33:53.382Z,100017.52
2019-02-28T12:36:27.637Z,100021.30
2019-02-28T12:39:02.081Z,100025.17
2019-02-28T12:41:34.250Z,100026.91
2019-02-28T12:44:06.065Z,100023.44
2019-02-28T12:46:37.846Z,100024.38
2019-02-28T12:49:09.368Z,100027.03
2019-02-28T12:51:41.023Z,100031.34
2019-02-28T12:54:12.630Z,100039.87
2019-02-28T12:56:47.827Z,100033.69
2019-02-28T12:59:18.554Z,100037.92
2019-02-28T13:01:50.120Z,100039.62
2019-02-28T13:04:21.749Z,100040.64
2019-02-28T13:06:55.546Z,100034.42
2019-02-28T13:09:27.490Z,100038.62
2019-02-28T13:11:59.084Z,100043.56
2019-02-28T13:14:30.694Z,100043.70
2019-02-28T13:17:02.431Z,100037.78
2019-02-28T13:19:34.045Z,100040.58
2019-02-28T13:22:05.683Z,100044.28
2019-02-28T13:24:37.384Z,100045.27
2019-02-28T13:27:09.829Z,100047.47
2019-02-28T13:29:42.458Z,100041.36
2019-02-28T13:32:14.272Z,100043.92
2019-02-28T13:34:45.880Z,100051.56
2019-02-28T13:37:17.470Z,100056.45
2019-02-28T13:39:49.114Z,100066.22
2019-02-28T13:42:20.665Z,100060.72
2019-02-28T13:44:52.272Z,100069.63
2019-02-28T13:47:25.567Z,100067.58
2019-02-28T13:49:57.118Z,100067.75
2019-02-28T13:52:28.709Z,100067.34
2019-02-28T13:55:00.418Z,100075.13
2019-02-28T13:57:32.135Z,100068.99
2019-02-28T14:00:07.850Z,100068.81
2019-02-28T14:02:38.075Z,100074.78
2019-02-28T14:05:09.745Z,100072.08
2019-02-28T14:07:41.418Z,100066.94
2019-02-28T14:10:18.619Z,100073.04
2019-02-28T14:12:53.204Z,100071.08
2019-02-28T14:15:34.345Z,100069.34
2019-02-28T14:18:07.489Z,100063.70
2019-02-28T14:20:40.258Z,100066.95
2019-02-28T14:23:11.918Z,100074.19
2019-02-28T14:25:43.507Z,100074.53
2019-02-28T14:28:15.968Z,100074.05
2019-02-28T14:30:47.610Z,100080.16
2019-02-28T14:33:20.638Z,100080.28
2019-02-28T14:35:52.507Z,100092.75
2019-02-28T14:38:26.018Z,100100.89
2019-02-28T14:40:59.361Z,100083.36
2019-02-28T14:43:31.350Z,100093.47
2019-02-28T14:46:03.594Z,100089.88
2019-02-28T14:48:36.651Z,100081.63
2019-02-28T14:51:08.886Z,100084.34
2019-02-28T14:53:40.769Z,100090.42
2019-02-28T14:56:14.374Z,100094.01
2019-02-28T14:58:57.382Z,100100.64
2019-02-28T15:01:27.703Z,100113.06
2019-02-28T15:03:59.454Z,100115.53
2019-02-28T15:06:31.272Z,100113.67
2019-02-28T15:09:46.608Z,100115.02
2019-02-28T15:12:55.381Z,100118.70
2019-02-28T15:15:27.943Z,100120.64
2019-02-28T15:18:32.766Z,100114.16
2019-02-28T15:24:45.754Z,100125.13
2019-02-28T15:27:17.879Z,100133.72
2019-02-28T15:29:49.697Z,100132.58
2019-02-28T15:32:23.407Z,100142.39
2019-02-28T15:34:54.761Z,100144.09
2019-02-28T15:37:26.434Z,100144.12
2019-02-28T15:39:57.968Z,100154.63
2019-02-28T15:42:29.512Z,100162.44
2019-02-28T15:45:04.135Z,100163.56
2019-02-28T15:47:34.636Z,100159.46
2019-02-28T15:50:13.626Z,100172.39
2019-02-28T15:52:46.700Z,100169.19
2019-02-28T15:55:20.174Z,100174.12
2019-02-28T15:57:51.724Z,100174.80
2019-02-28T16:00:28.471Z,100185.33
2019-02-28T16:03:00.886Z,100189.53
2019-02-28T16:05:32.499Z,100197.08
2019-02-28T16:08:08.737Z,100196.13
2019-02-28T16:10:37.399Z,100205.30
2019-02-28T16:13:09.021Z,100208.63
2019-02-28T16:15:43.270Z,100207.46
2019-02-28T16:18:14.015Z,100213.05
2019-02-28T16:20:45.549Z,100215.03
2019-02-28T16:23:17.136Z,100227.68
2019-02-28T16:25:50.177Z,100225.24
2019-02-28T16:28:21.866Z,100228.42
2019-02-28T16:30:53.467Z,100233.13
2019-02-28T16:33:25.554Z,100235.68
2019-02-28T16:35:57.140Z,100250.95
2019-02-28T16:38:30.361Z,100256.63
2019-02-28T16:41:02.153Z,100265.91
2019-02-28T16:43:34.056Z,100265.50
2019-02-28T16:46:05.683Z,100264.12
2019-02-28T16:48:37.817Z,100264.27
2019-02-28T16:51:09.364Z,100272.05
2019-02-28T16:53:41.015Z,100273.91
2019-02-28T16:56:12.554Z,100280.50
2019-02-28T16:58:44.079Z,100280.76
2019-02-28T17:01:17.535Z,100281.17
2019-02-28T17:03:49.435Z,100280.53
2019-02-28T17:06:20.978Z,100271.04
2019-02-28T17:08:54.517Z,100268.88
2019-02-28T17:11:28.469Z,100265.79
2019-02-28T17:14:01.755Z,100288.15
2019-02-28T17:16:38.614Z,100288.95
2019-02-28T17:19:11.346Z,100292.49
2019-02-28T17:21:42.899Z,100298.84
2019-02-28T17:24:14.492Z,100294.72
2019-02-28T17:26:50.552Z,100296.47
2019-02-28T17:29:25.212Z,100298.64
2019-02-28T17:31:57.606Z,100312.52
2019-02-28T17:34:29.210Z,100316.53
2019-02-28T17:37:00.831Z,100312.95
2019-02-28T17:39:33.286Z,100310.35
2019-02-28T17:42:08.565Z,100309.42
2019-02-28T17:44:46.276Z,100312.81
2019-02-28T17:47:33.036Z,100319.16
2019-02-28T17:50:42.838Z,100319.80
2019-02-28T17:53:38.191Z,100318.63
2019-02-28T17:56:32.126Z,100328.60
2019-02-28T17:59:31.105Z,100333.83
2019-02-28T18:02:46.892Z,100335.70
2019-02-28T18:05:51.911Z,100341.27
2019-02-28T18:08:50.510Z,100336.88
2019-02-28T18:11:45.012Z,100336.55
2019-02-28T18:14:40.383Z,100337.56
2019-02-28T18:17:53.483Z,100346.63
2019-02-28T18:20:38.909Z,100351.27
2019-02-28T18:23:39.688Z,100360.93
2019-02-28T18:26:39.187Z,100364.38
2019-02-28T18:29:15.026Z,100373.31
2019-02-28T18:31:46.615Z,100361.88
2019-02-28T18:34:20.575Z,100366.27
2019-02-28T18:36:51.796Z,100366.63
2019-02-28T18:39:25.319Z,100366.60
2019-02-28T18:41:56.692Z,100361.05
2019-02-28T18:44:28.294Z,100355.58
2019-02-28T18:47:02.989Z,100352.96
2019-02-28T18:49:33.248Z,100365.23
2019-02-28T18:52:04.906Z,100361.70
2019-02-28T18:54:36.960Z,100364.97
2019-02-28T18:57:08.499Z,100364.55
2019-02-28T18:59:40.283Z,100368.98
2019-02-28T19:02:12.083Z,100358.79
2019-02-28T19:04:43.754Z,100361.58
2019-02-28T19:07:15.412Z,100365.41
2019-02-28T19:09:47.105Z,100357.55
2019-02-28T19:12:18.662Z,100361.70
2019-02-28T19:14:50.669Z,100362.20
2019-02-28T19:17:22.275Z,100371.50
2019-02-28T19:19:53.952Z,100380.09
2019-02-28T19:22:25.540Z,100376.13
2019-02-28T19:24:57.191Z,100380.14
2019-02-28T19:27:28.881Z,100374.46
2019-02-28T19:30:00.481Z,100383.82
2019-02-28T19:32:33.859Z,100382.48
2019-02-28T19:35:05.885Z,100390.50
2019-02-28T19:37:37.610Z,100378.50
2019-02-28T19:40:12.401Z,100382.18
2019-02-28T19:42:44.011Z,100385.74
2019-02-28T19:45:25.458Z,100387.13
2019-02-28T19:47:57.585Z,100396.44
2019-02-28T19:50:29.197Z,100393.77
2019-02-28T19:53:00.802Z,100395.98
2019-02-28T19:55:32.400Z,100394.80
2019-02-28T19:58:04.013Z,100397.48
2019-02-28T20:00:35.597Z,100401.63
2019-02-28T20:03:07.686Z,100402.92
2019-02-28T20:05:39.221Z,100397.63
2019-02-28T20:08:10.802Z,100399.16
2019-02-28T20:10:42.515Z,100405.48
2019-02-28T20:13:14.227Z,100398.47
2019-02-28T20:15:45.960Z,100397.58
2019-02-28T20:18:18.257Z,100389.20
2019-02-28T20:20:50.474Z,100398.13
2019-02-28T20:23:22.075Z,100388.30
2019-02-28T20:25:53.700Z,100399.49
2019-02-28T20:28:25.515Z,100398.34
2019-02-28T20:30:57.580Z,100412.56
2019-02-28T20:33:29.183Z,100413.80
2019-02-28T20:36:01.366Z,100415.50
2019-02-28T20:38:33.184Z,100415.44
2019-02-28T20:41:04.855Z,100410.58
2019-02-28T20:43:36.656Z,100409.34
2019-02-28T20:46:08.253Z,100419.42
2019-02-28T20:48:39.938Z,100422.11
2019-02-28T20:51:11.494Z,100420.25
2019-02-28T20:53:43.144Z,100422.17
2019-02-28T20:56:14.776Z,100427.11
2019-02-28T20:58:46.364Z,100426.02
2019-02-28T21:01:18.135Z,100425.66
2019-02-28T21:03:49.750Z,100421.33
2019-02-28T21:06:21.423Z,100418.66
2019-02-28T21:08:53.101Z,100418.97
2019-02-28T21:11:24.737Z,100421.05
2019-02-28T21:13:56.382Z,100412.06
2019-02-28T21:16:28.052Z,100424.68
2019-02-28T21:18:59.667Z,100421.27
2019-02-28T21:21:31.460Z,100418.58
2019-02-28T21:24:04.135Z,100423.58
2019-02-28T21:26:35.708Z,100427.28
2019-02-28T21:29:07.569Z,100426.56
2019-02-28T21:34:26.299Z,100428.13
2019-02-28T21:36:58.235Z,100428.96
2019-02-28T21:39:30.490Z,100430.67
2019-02-28T21:42:02.379Z,100427.92
2019-02-28T21:44:46.796Z,100432.25
2019-02-28T21:47:18.398Z,100418.08
2019-02-28T21:49:50.286Z,100421.79
2019-02-28T21:52:22.067Z,100419.91
2019-02-28T21:54:53.737Z,100416.08
2019-02-28T21:57:26.027Z,100419.92
2019-02-28T22:00:00.331Z,100425.69
2019-02-28T22:02:34.294Z,100434.61
2019-02-28T22:05:38.711Z,100433.27
2019-02-28T22:08:11.073Z,100437.69
2019-02-28T22:10:42.612Z,100436.44
2019-02-28T22:13:14.994Z,100442.71
2019-02-28T22:15:46.569Z,100444.47
2019-02-28T22:18:18.843Z,100435.03
2019-02-28T22:20:50.950Z,100425.17
2019-02-28T22:23:22.892Z,100428.34
2019-02-28T22:25:54.851Z,100426.26
2019-02-28T22:28:26.983Z,100428.56
2019-02-28T22:31:00.305Z,100435.61
2019-02-28T22:33:42.725Z,100427.41
2019-02-28T22:36:16.004Z,100434.02
2019-02-28T22:38:47.686Z,100427.39
2019-02-28T22:41:19.785Z,100429.65
2019-02-28T22:43:51.328Z,100430.98
2019-02-28T22:46:22.991Z,100428.14
2019-02-28T22:48:54.645Z,100427.00
2019-02-28T22:51:26.153Z,100427.84
2019-02-28T22:53:57.763Z,100423.30
2019-02-28T22:56:29.279Z,100433.16
2019-02-28T22:59:00.819Z,100441.93
2019-02-28T23:01:32.798Z,100435.92
2019-02-28T23:04:04.324Z,100434.39
2019-02-28T23:06:36.089Z,100437.98
2019-02-28T23:09:08.081Z,100438.53
2019-02-28T23:11:40.221Z,100449.40
2019-02-28T23:14:11.816Z,100451.98
2019-02-28T23:16:43.405Z,100444.37
2019-02-28T23:19:15.018Z,100447.88
2019-02-28T23:21:46.574Z,100453.32
2019-02-28T23:24:18.174Z,100445.90
2019-02-28T23:27:13.085Z,100444.98
2019-02-28T23:29:58.659Z,100440.66
2019-02-28T23:32:42.497Z,100430.77
2019-02-28T23:35:22.215Z,100428.45
2019-02-28T23:37:53.740Z,100433.08
2019-02-28T23:40:25.288Z,100431.53
2019-02-28T23:42:56.823Z,100424.63
2019-02-28T23:45:28.679Z,100421.83
2019-02-28T23:48:00.344Z,100411.30
2019-02-28T23:50:31.939Z,100415.91
2019-02-28T23:53:03.553Z,100413.22
2019-02-28T23:55:35.084Z,100415.28
2019-02-28T23:58:06.656Z,100405.51
